Terminal Aerodrome Forecast
Issued by NWS Boston, MA

Current Version | Previous Version | Text Only | Print | Product List | Glossary On
Versions: 1 2 3 4 5 6 7 8 9 10 11 12 13 14 15 16 17 18 19 20 21 22 23 24 25 26 27 28 29 30 31 32 33 34 35 36 37 38
000 FTUS41 KBOX 231439 AAB TAFBOS TAF AMD KBOS 231439Z 2315/2418 02024G38KT P6SM BKN010 OVC025 FM232000 01022G34KT 5SM -SHRA BR OVC008 FM240200 36014G22KT 6SM BR OVC008 FM240900 34012G20KT 6SM BR OVC010 FM241100 33011KT 6SM BR OVC015=

USA.gov is the U.S. government's official web portal to all federal, state and local government web resources and services.